sensor_id;sensor_type;location;lat;lon;timestamp;P1;durP1;ratioP1;P2;durP2;ratioP2
68108;SDS011;54893;49.864;19.084;2023-08-20T00:03:46;27.73;;;18.97;;
68108;SDS011;54893;49.864;19.084;2023-08-20T00:08:48;28.17;;;18.60;;
68108;SDS011;54893;49.864;19.084;2023-08-20T00:13:49;27.20;;;18.65;;
68108;SDS011;54893;49.864;19.084;2023-08-20T00:18:49;25.20;;;17.53;;
68108;SDS011;54893;49.864;19.084;2023-08-20T00:23:50;27.43;;;17.47;;
68108;SDS011;54893;49.864;19.084;2023-08-20T00:28:50;25.00;;;16.70;;
68108;SDS011;54893;49.864;19.084;2023-08-20T00:33:50;26.10;;;17.55;;
68108;SDS011;54893;49.864;19.084;2023-08-20T00:38:51;25.60;;;17.20;;
68108;SDS011;54893;49.864;19.084;2023-08-20T00:43:51;25.20;;;16.85;;
68108;SDS011;54893;49.864;19.084;2023-08-20T00:48:51;24.37;;;16.57;;
68108;SDS011;54893;49.864;19.084;2023-08-20T00:53:52;23.90;;;17.17;;
68108;SDS011;54893;49.864;19.084;2023-08-20T00:58:53;25.40;;;17.13;;
68108;SDS011;54893;49.864;19.084;2023-08-20T01:03:54;29.00;;;17.10;;
68108;SDS011;54893;49.864;19.084;2023-08-20T01:08:59;26.13;;;17.13;;
68108;SDS011;54893;49.864;19.084;2023-08-20T01:14:13;26.23;;;16.75;;
68108;SDS011;54893;49.864;19.084;2023-08-20T01:19:21;24.98;;;17.65;;
68108;SDS011;54893;49.864;19.084;2023-08-20T01:24:31;28.80;;;17.93;;
68108;SDS011;54893;49.864;19.084;2023-08-20T01:29:54;29.70;;;17.98;;
68108;SDS011;54893;49.864;19.084;2023-08-20T01:34:55;27.83;;;18.97;;
68108;SDS011;54893;49.864;19.084;2023-08-20T01:39:56;26.67;;;17.38;;
68108;SDS011;54893;49.864;19.084;2023-08-20T01:44:56;24.83;;;16.90;;
68108;SDS011;54893;49.864;19.084;2023-08-20T01:49:56;29.27;;;17.57;;
68108;SDS011;54893;49.864;19.084;2023-08-20T01:54:57;28.67;;;17.65;;
68108;SDS011;54893;49.864;19.084;2023-08-20T01:59:58;27.55;;;17.30;;
68108;SDS011;54893;49.864;19.084;2023-08-20T02:04:58;25.50;;;16.77;;
68108;SDS011;54893;49.864;19.084;2023-08-20T02:09:58;25.67;;;16.80;;
68108;SDS011;54893;49.864;19.084;2023-08-20T02:14:59;25.97;;;17.67;;
68108;SDS011;54893;49.864;19.084;2023-08-20T02:19:59;26.23;;;17.27;;
68108;SDS011;54893;49.864;19.084;2023-08-20T02:25:00;31.70;;;18.00;;
68108;SDS011;54893;49.864;19.084;2023-08-20T02:30:00;29.07;;;18.37;;
68108;SDS011;54893;49.864;19.084;2023-08-20T02:35:00;27.08;;;18.20;;
68108;SDS011;54893;49.864;19.084;2023-08-20T02:40:00;29.00;;;17.63;;
68108;SDS011;54893;49.864;19.084;2023-08-20T02:45:01;29.90;;;19.10;;
68108;SDS011;54893;49.864;19.084;2023-08-20T02:50:01;27.07;;;17.43;;
68108;SDS011;54893;49.864;19.084;2023-08-20T02:55:02;26.47;;;18.00;;
68108;SDS011;54893;49.864;19.084;2023-08-20T03:00:04;26.23;;;17.42;;
68108;SDS011;54893;49.864;19.084;2023-08-20T03:05:05;24.88;;;16.80;;
68108;SDS011;54893;49.864;19.084;2023-08-20T03:10:06;27.02;;;17.55;;
68108;SDS011;54893;49.864;19.084;2023-08-20T03:15:07;25.67;;;17.80;;
68108;SDS011;54893;49.864;19.084;2023-08-20T03:20:07;24.60;;;16.77;;
68108;SDS011;54893;49.864;19.084;2023-08-20T03:25:09;25.77;;;17.27;;
68108;SDS011;54893;49.864;19.084;2023-08-20T03:30:09;27.33;;;16.70;;
68108;SDS011;54893;49.864;19.084;2023-08-20T03:35:10;24.73;;;16.80;;
68108;SDS011;54893;49.864;19.084;2023-08-20T03:40:10;27.43;;;18.20;;
68108;SDS011;54893;49.864;19.084;2023-08-20T03:45:11;26.88;;;17.10;;
68108;SDS011;54893;49.864;19.084;2023-08-20T03:50:11;25.87;;;17.07;;
68108;SDS011;54893;49.864;19.084;2023-08-20T03:55:12;24.45;;;16.77;;
68108;SDS011;54893;49.864;19.084;2023-08-20T04:00:12;28.43;;;16.97;;
68108;SDS011;54893;49.864;19.084;2023-08-20T04:05:13;25.45;;;17.23;;
68108;SDS011;54893;49.864;19.084;2023-08-20T04:10:13;24.60;;;16.67;;
68108;SDS011;54893;49.864;19.084;2023-08-20T04:15:13;25.40;;;16.80;;
68108;SDS011;54893;49.864;19.084;2023-08-20T04:20:14;23.93;;;15.87;;
68108;SDS011;54893;49.864;19.084;2023-08-20T04:25:15;25.20;;;16.07;;
68108;SDS011;54893;49.864;19.084;2023-08-20T04:30:15;24.07;;;15.40;;
68108;SDS011;54893;49.864;19.084;2023-08-20T04:35:15;25.40;;;14.43;;
68108;SDS011;54893;49.864;19.084;2023-08-20T04:40:16;20.00;;;13.63;;
68108;SDS011;54893;49.864;19.084;2023-08-20T04:45:16;20.10;;;12.57;;
68108;SDS011;54893;49.864;19.084;2023-08-20T04:50:19;23.50;;;13.07;;
68108;SDS011;54893;49.864;19.084;2023-08-20T04:55:19;21.13;;;13.37;;
68108;SDS011;54893;49.864;19.084;2023-08-20T05:00:21;18.70;;;12.03;;
68108;SDS011;54893;49.864;19.084;2023-08-20T05:05:22;21.35;;;13.15;;
68108;SDS011;54893;49.864;19.084;2023-08-20T05:10:22;21.17;;;13.13;;
68108;SDS011;54893;49.864;19.084;2023-08-20T05:15:22;20.10;;;13.77;;
68108;SDS011;54893;49.864;19.084;2023-08-20T05:20:23;21.33;;;13.70;;
68108;SDS011;54893;49.864;19.084;2023-08-20T05:25:23;18.23;;;12.50;;
68108;SDS011;54893;49.864;19.084;2023-08-20T05:30:23;18.27;;;12.47;;
68108;SDS011;54893;49.864;19.084;2023-08-20T05:35:24;19.33;;;12.60;;
68108;SDS011;54893;49.864;19.084;2023-08-20T05:40:24;19.00;;;12.23;;
68108;SDS011;54893;49.864;19.084;2023-08-20T05:45:24;19.35;;;12.23;;
68108;SDS011;54893;49.864;19.084;2023-08-20T05:50:25;18.48;;;13.05;;
68108;SDS011;54893;49.864;19.084;2023-08-20T05:55:25;17.13;;;11.67;;
68108;SDS011;54893;49.864;19.084;2023-08-20T06:00:26;15.17;;;11.70;;
68108;SDS011;54893;49.864;19.084;2023-08-20T06:05:26;16.33;;;12.00;;
68108;SDS011;54893;49.864;19.084;2023-08-20T06:10:26;17.10;;;11.33;;
68108;SDS011;54893;49.864;19.084;2023-08-20T06:15:27;18.13;;;12.15;;
68108;SDS011;54893;49.864;19.084;2023-08-20T06:20:27;16.67;;;12.13;;
68108;SDS011;54893;49.864;19.084;2023-08-20T06:25:27;15.40;;;10.98;;
68108;SDS011;54893;49.864;19.084;2023-08-20T06:30:28;15.73;;;11.30;;
68108;SDS011;54893;49.864;19.084;2023-08-20T06:35:28;14.80;;;11.47;;
68108;SDS011;54893;49.864;19.084;2023-08-20T06:40:28;15.73;;;11.00;;
68108;SDS011;54893;49.864;19.084;2023-08-20T06:45:29;14.40;;;10.83;;
68108;SDS011;54893;49.864;19.084;2023-08-20T06:50:31;14.00;;;11.40;;
68108;SDS011;54893;49.864;19.084;2023-08-20T06:55:31;15.70;;;10.48;;
68108;SDS011;54893;49.864;19.084;2023-08-20T07:00:31;12.80;;;10.63;;
68108;SDS011;54893;49.864;19.084;2023-08-20T07:05:32;13.40;;;10.50;;
68108;SDS011;54893;49.864;19.084;2023-08-20T07:10:32;13.00;;;10.60;;
68108;SDS011;54893;49.864;19.084;2023-08-20T07:15:32;12.60;;;10.55;;
68108;SDS011;54893;49.864;19.084;2023-08-20T07:20:32;13.75;;;10.05;;
68108;SDS011;54893;49.864;19.084;2023-08-20T07:25:33;18.85;;;10.73;;
68108;SDS011;54893;49.864;19.084;2023-08-20T07:30:33;13.70;;;11.70;;
68108;SDS011;54893;49.864;19.084;2023-08-20T07:35:34;13.25;;;10.93;;
68108;SDS011;54893;49.864;19.084;2023-08-20T07:40:35;16.52;;;10.77;;
68108;SDS011;54893;49.864;19.084;2023-08-20T07:45:36;17.92;;;11.10;;
68108;SDS011;54893;49.864;19.084;2023-08-20T07:50:37;14.57;;;11.53;;
68108;SDS011;54893;49.864;19.084;2023-08-20T07:55:37;13.73;;;11.30;;
68108;SDS011;54893;49.864;19.084;2023-08-20T08:00:37;14.70;;;12.00;;
68108;SDS011;54893;49.864;19.084;2023-08-20T08:05:38;14.33;;;12.33;;
68108;SDS011;54893;49.864;19.084;2023-08-20T08:10:38;15.30;;;11.93;;
68108;SDS011;54893;49.864;19.084;2023-08-20T08:15:38;13.30;;;11.57;;
68108;SDS011;54893;49.864;19.084;2023-08-20T08:20:39;15.40;;;11.10;;
68108;SDS011;54893;49.864;19.084;2023-08-20T08:25:40;14.48;;;11.57;;
68108;SDS011;54893;49.864;19.084;2023-08-20T08:30:41;15.20;;;12.40;;
68108;SDS011;54893;49.864;19.084;2023-08-20T08:35:41;15.45;;;11.73;;
68108;SDS011;54893;49.864;19.084;2023-08-20T08:40:41;15.67;;;12.97;;
68108;SDS011;54893;49.864;19.084;2023-08-20T08:45:44;15.23;;;12.30;;
68108;SDS011;54893;49.864;19.084;2023-08-20T08:50:47;16.93;;;12.63;;
68108;SDS011;54893;49.864;19.084;2023-08-20T08:55:49;17.50;;;12.13;;
68108;SDS011;54893;49.864;19.084;2023-08-20T09:00:49;15.60;;;12.03;;
68108;SDS011;54893;49.864;19.084;2023-08-20T09:05:50;16.17;;;11.93;;
68108;SDS011;54893;49.864;19.084;2023-08-20T09:10:55;18.67;;;12.50;;
68108;SDS011;54893;49.864;19.084;2023-08-20T09:15:57;14.93;;;12.70;;
68108;SDS011;54893;49.864;19.084;2023-08-20T09:20:57;15.87;;;11.33;;
68108;SDS011;54893;49.864;19.084;2023-08-20T09:26:00;15.23;;;11.27;;
68108;SDS011;54893;49.864;19.084;2023-08-20T09:31:02;13.60;;;12.10;;
68108;SDS011;54893;49.864;19.084;2023-08-20T09:36:03;17.83;;;11.50;;
68108;SDS011;54893;49.864;19.084;2023-08-20T09:41:04;14.48;;;10.85;;
68108;SDS011;54893;49.864;19.084;2023-08-20T09:46:08;14.32;;;11.40;;
68108;SDS011;54893;49.864;19.084;2023-08-20T09:51:11;15.80;;;10.57;;
68108;SDS011;54893;49.864;19.084;2023-08-20T09:56:15;14.85;;;11.38;;
68108;SDS011;54893;49.864;19.084;2023-08-20T10:01:26;14.30;;;11.90;;
68108;SDS011;54893;49.864;19.084;2023-08-20T10:06:28;13.15;;;10.80;;
68108;SDS011;54893;49.864;19.084;2023-08-20T10:11:30;13.27;;;11.07;;
68108;SDS011;54893;49.864;19.084;2023-08-20T10:16:32;12.20;;;9.97;;
68108;SDS011;54893;49.864;19.084;2023-08-20T10:21:33;14.30;;;10.20;;
68108;SDS011;54893;49.864;19.084;2023-08-20T10:26:33;13.27;;;10.20;;
68108;SDS011;54893;49.864;19.084;2023-08-20T10:31:35;15.38;;;11.80;;
68108;SDS011;54893;49.864;19.084;2023-08-20T10:36:35;12.23;;;9.60;;
68108;SDS011;54893;49.864;19.084;2023-08-20T10:41:41;12.37;;;10.13;;
68108;SDS011;54893;49.864;19.084;2023-08-20T10:46:49;13.13;;;10.67;;
68108;SDS011;54893;49.864;19.084;2023-08-20T10:51:51;13.40;;;10.73;;
68108;SDS011;54893;49.864;19.084;2023-08-20T10:56:57;12.60;;;10.30;;
68108;SDS011;54893;49.864;19.084;2023-08-20T11:02:00;11.77;;;10.47;;
68108;SDS011;54893;49.864;19.084;2023-08-20T11:07:03;13.18;;;10.02;;
68108;SDS011;54893;49.864;19.084;2023-08-20T11:12:04;13.17;;;10.27;;
68108;SDS011;54893;49.864;19.084;2023-08-20T11:17:05;12.38;;;9.38;;
68108;SDS011;54893;49.864;19.084;2023-08-20T11:22:05;10.27;;;8.17;;
68108;SDS011;54893;49.864;19.084;2023-08-20T11:27:05;10.37;;;9.00;;
68108;SDS011;54893;49.864;19.084;2023-08-20T11:32:06;10.40;;;8.70;;
68108;SDS011;54893;49.864;19.084;2023-08-20T11:37:06;10.63;;;8.60;;
68108;SDS011;54893;49.864;19.084;2023-08-20T11:42:06;10.47;;;9.23;;
68108;SDS011;54893;49.864;19.084;2023-08-20T11:47:17;14.73;;;8.80;;
68108;SDS011;54893;49.864;19.084;2023-08-20T11:52:18;10.68;;;8.55;;
68108;SDS011;54893;49.864;19.084;2023-08-20T11:57:20;12.40;;;9.30;;
68108;SDS011;54893;49.864;19.084;2023-08-20T12:02:25;12.88;;;10.75;;
68108;SDS011;54893;49.864;19.084;2023-08-20T12:07:27;13.93;;;9.70;;
68108;SDS011;54893;49.864;19.084;2023-08-20T12:12:27;12.17;;;10.23;;
68108;SDS011;54893;49.864;19.084;2023-08-20T12:17:27;12.50;;;10.87;;
68108;SDS011;54893;49.864;19.084;2023-08-20T12:22:28;13.17;;;10.07;;
68108;SDS011;54893;49.864;19.084;2023-08-20T12:27:28;12.80;;;10.10;;
68108;SDS011;54893;49.864;19.084;2023-08-20T12:32:29;14.20;;;9.53;;
68108;SDS011;54893;49.864;19.084;2023-08-20T12:37:29;12.20;;;10.32;;
68108;SDS011;54893;49.864;19.084;2023-08-20T12:42:29;12.07;;;9.95;;
68108;SDS011;54893;49.864;19.084;2023-08-20T12:47:30;12.23;;;10.20;;
68108;SDS011;54893;49.864;19.084;2023-08-20T12:52:31;11.93;;;10.25;;
68108;SDS011;54893;49.864;19.084;2023-08-20T12:57:33;12.17;;;10.60;;
68108;SDS011;54893;49.864;19.084;2023-08-20T13:02:34;13.05;;;11.07;;
68108;SDS011;54893;49.864;19.084;2023-08-20T13:07:35;13.07;;;9.97;;
68108;SDS011;54893;49.864;19.084;2023-08-20T13:12:36;13.50;;;10.70;;
68108;SDS011;54893;49.864;19.084;2023-08-20T13:17:36;13.57;;;9.40;;
68108;SDS011;54893;49.864;19.084;2023-08-20T13:22:37;12.00;;;9.90;;
68108;SDS011;54893;49.864;19.084;2023-08-20T13:27:38;12.10;;;10.33;;
68108;SDS011;54893;49.864;19.084;2023-08-20T13:32:38;12.73;;;9.77;;
68108;SDS011;54893;49.864;19.084;2023-08-20T13:37:39;14.25;;;9.98;;
68108;SDS011;54893;49.864;19.084;2023-08-20T13:42:39;11.43;;;9.93;;
68108;SDS011;54893;49.864;19.084;2023-08-20T13:47:39;11.45;;;9.23;;
68108;SDS011;54893;49.864;19.084;2023-08-20T13:52:40;10.93;;;9.07;;
68108;SDS011;54893;49.864;19.084;2023-08-20T13:57:40;11.33;;;9.23;;
68108;SDS011;54893;49.864;19.084;2023-08-20T14:02:41;12.43;;;9.20;;
68108;SDS011;54893;49.864;19.084;2023-08-20T14:07:41;9.93;;;8.57;;
68108;SDS011;54893;49.864;19.084;2023-08-20T14:12:41;11.87;;;8.63;;
68108;SDS011;54893;49.864;19.084;2023-08-20T14:17:42;14.13;;;8.97;;
68108;SDS011;54893;49.864;19.084;2023-08-20T14:22:42;11.33;;;9.70;;
68108;SDS011;54893;49.864;19.084;2023-08-20T14:27:42;11.73;;;8.10;;
68108;SDS011;54893;49.864;19.084;2023-08-20T14:32:43;10.40;;;8.48;;
68108;SDS011;54893;49.864;19.084;2023-08-20T14:37:43;12.30;;;8.73;;
68108;SDS011;54893;49.864;19.084;2023-08-20T14:42:43;9.57;;;8.50;;
68108;SDS011;54893;49.864;19.084;2023-08-20T14:47:44;10.23;;;8.67;;
68108;SDS011;54893;49.864;19.084;2023-08-20T14:52:44;10.53;;;9.37;;
68108;SDS011;54893;49.864;19.084;2023-08-20T14:57:45;10.48;;;9.48;;
68108;SDS011;54893;49.864;19.084;2023-08-20T15:02:46;10.23;;;8.80;;
68108;SDS011;54893;49.864;19.084;2023-08-20T15:07:46;10.30;;;9.20;;
68108;SDS011;54893;49.864;19.084;2023-08-20T15:12:47;11.57;;;10.23;;
68108;SDS011;54893;49.864;19.084;2023-08-20T15:17:47;10.50;;;9.40;;
68108;SDS011;54893;49.864;19.084;2023-08-20T15:22:50;10.48;;;9.48;;
68108;SDS011;54893;49.864;19.084;2023-08-20T15:27:50;11.43;;;9.32;;
68108;SDS011;54893;49.864;19.084;2023-08-20T15:32:51;11.40;;;9.30;;
68108;SDS011;54893;49.864;19.084;2023-08-20T15:37:51;11.50;;;9.40;;
68108;SDS011;54893;49.864;19.084;2023-08-20T15:42:53;11.18;;;10.07;;
68108;SDS011;54893;49.864;19.084;2023-08-20T15:47:53;11.27;;;9.77;;
68108;SDS011;54893;49.864;19.084;2023-08-20T15:52:54;10.50;;;9.50;;
68108;SDS011;54893;49.864;19.084;2023-08-20T15:57:54;10.67;;;9.37;;
68108;SDS011;54893;49.864;19.084;2023-08-20T16:02:55;9.97;;;8.83;;
68108;SDS011;54893;49.864;19.084;2023-08-20T16:07:55;11.77;;;10.33;;
68108;SDS011;54893;49.864;19.084;2023-08-20T16:12:56;10.30;;;9.23;;
68108;SDS011;54893;49.864;19.084;2023-08-20T16:17:56;9.57;;;8.53;;
68108;SDS011;54893;49.864;19.084;2023-08-20T16:22:56;9.63;;;8.40;;
68108;SDS011;54893;49.864;19.084;2023-08-20T16:27:57;10.57;;;8.30;;
68108;SDS011;54893;49.864;19.084;2023-08-20T16:32:57;10.07;;;8.17;;
68108;SDS011;54893;49.864;19.084;2023-08-20T16:37:57;8.75;;;7.85;;
68108;SDS011;54893;49.864;19.084;2023-08-20T16:42:58;10.77;;;9.07;;
68108;SDS011;54893;49.864;19.084;2023-08-20T16:48:00;10.00;;;8.38;;
68108;SDS011;54893;49.864;19.084;2023-08-20T16:53:00;9.65;;;8.63;;
68108;SDS011;54893;49.864;19.084;2023-08-20T16:58:01;12.90;;;8.50;;
68108;SDS011;54893;49.864;19.084;2023-08-20T17:03:01;10.43;;;8.23;;
68108;SDS011;54893;49.864;19.084;2023-08-20T17:08:02;11.93;;;8.50;;
68108;SDS011;54893;49.864;19.084;2023-08-20T17:13:03;26.90;;;9.37;;
68108;SDS011;54893;49.864;19.084;2023-08-20T17:18:03;11.30;;;8.97;;
68108;SDS011;54893;49.864;19.084;2023-08-20T17:23:04;10.93;;;8.20;;
68108;SDS011;54893;49.864;19.084;2023-08-20T17:28:04;12.53;;;8.20;;
68108;SDS011;54893;49.864;19.084;2023-08-20T17:33:05;12.05;;;9.00;;
68108;SDS011;54893;49.864;19.084;2023-08-20T17:38:07;11.77;;;8.33;;
68108;SDS011;54893;49.864;19.084;2023-08-20T17:43:09;12.60;;;8.95;;
68108;SDS011;54893;49.864;19.084;2023-08-20T17:48:09;14.05;;;8.70;;
68108;SDS011;54893;49.864;19.084;2023-08-20T17:53:10;13.93;;;8.97;;
68108;SDS011;54893;49.864;19.084;2023-08-20T17:58:10;13.23;;;9.40;;
68108;SDS011;54893;49.864;19.084;2023-08-20T18:03:10;13.00;;;8.97;;
68108;SDS011;54893;49.864;19.084;2023-08-20T18:08:11;14.97;;;9.07;;
68108;SDS011;54893;49.864;19.084;2023-08-20T18:13:11;16.77;;;9.93;;
68108;SDS011;54893;49.864;19.084;2023-08-20T18:18:12;13.13;;;9.27;;
68108;SDS011;54893;49.864;19.084;2023-08-20T18:23:13;15.00;;;9.80;;
68108;SDS011;54893;49.864;19.084;2023-08-20T18:28:15;14.43;;;9.93;;
68108;SDS011;54893;49.864;19.084;2023-08-20T18:33:16;17.17;;;10.17;;
68108;SDS011;54893;49.864;19.084;2023-08-20T18:38:35;19.63;;;12.68;;
68108;SDS011;54893;49.864;19.084;2023-08-20T18:43:40;20.83;;;14.82;;
68108;SDS011;54893;49.864;19.084;2023-08-20T18:48:41;24.90;;;15.57;;
68108;SDS011;54893;49.864;19.084;2023-08-20T18:53:41;25.50;;;15.10;;
68108;SDS011;54893;49.864;19.084;2023-08-20T18:58:42;23.93;;;14.60;;
68108;SDS011;54893;49.864;19.084;2023-08-20T19:03:42;20.60;;;13.47;;
68108;SDS011;54893;49.864;19.084;2023-08-20T19:08:42;22.53;;;13.03;;
68108;SDS011;54893;49.864;19.084;2023-08-20T19:13:43;18.30;;;13.10;;
68108;SDS011;54893;49.864;19.084;2023-08-20T19:18:43;23.07;;;13.83;;
68108;SDS011;54893;49.864;19.084;2023-08-20T19:23:44;20.53;;;14.20;;
68108;SDS011;54893;49.864;19.084;2023-08-20T19:28:47;22.17;;;14.13;;
68108;SDS011;54893;49.864;19.084;2023-08-20T19:33:47;21.03;;;14.60;;
68108;SDS011;54893;49.864;19.084;2023-08-20T19:38:48;28.17;;;17.87;;
68108;SDS011;54893;49.864;19.084;2023-08-20T19:43:48;31.90;;;16.15;;
68108;SDS011;54893;49.864;19.084;2023-08-20T19:48:48;20.58;;;14.07;;
68108;SDS011;54893;49.864;19.084;2023-08-20T19:53:49;19.20;;;13.57;;
68108;SDS011;54893;49.864;19.084;2023-08-20T19:58:49;20.98;;;13.10;;
68108;SDS011;54893;49.864;19.084;2023-08-20T20:03:50;19.58;;;12.75;;
68108;SDS011;54893;49.864;19.084;2023-08-20T20:08:52;18.70;;;12.65;;
68108;SDS011;54893;49.864;19.084;2023-08-20T20:13:52;22.70;;;13.10;;
68108;SDS011;54893;49.864;19.084;2023-08-20T20:18:52;19.33;;;12.55;;
68108;SDS011;54893;49.864;19.084;2023-08-20T20:23:53;18.20;;;12.70;;
68108;SDS011;54893;49.864;19.084;2023-08-20T20:28:53;19.00;;;12.80;;
68108;SDS011;54893;49.864;19.084;2023-08-20T20:33:54;19.20;;;12.17;;
68108;SDS011;54893;49.864;19.084;2023-08-20T20:38:54;19.17;;;12.47;;
68108;SDS011;54893;49.864;19.084;2023-08-20T20:43:54;17.23;;;11.48;;
68108;SDS011;54893;49.864;19.084;2023-08-20T20:48:55;16.43;;;11.03;;
68108;SDS011;54893;49.864;19.084;2023-08-20T20:53:55;17.43;;;11.60;;
68108;SDS011;54893;49.864;19.084;2023-08-20T20:58:56;20.73;;;12.13;;
68108;SDS011;54893;49.864;19.084;2023-08-20T21:03:56;17.93;;;10.90;;
68108;SDS011;54893;49.864;19.084;2023-08-20T21:08:56;18.43;;;10.80;;
68108;SDS011;54893;49.864;19.084;2023-08-20T21:13:57;15.27;;;11.07;;
68108;SDS011;54893;49.864;19.084;2023-08-20T21:18:57;17.97;;;11.00;;
68108;SDS011;54893;49.864;19.084;2023-08-20T21:23:59;18.77;;;11.67;;
68108;SDS011;54893;49.864;19.084;2023-08-20T21:28:59;18.90;;;11.80;;
68108;SDS011;54893;49.864;19.084;2023-08-20T21:33:59;17.20;;;12.07;;
68108;SDS011;54893;49.864;19.084;2023-08-20T21:38:59;18.13;;;11.20;;
68108;SDS011;54893;49.864;19.084;2023-08-20T21:44:00;21.73;;;11.23;;
68108;SDS011;54893;49.864;19.084;2023-08-20T21:49:00;18.73;;;11.80;;
68108;SDS011;54893;49.864;19.084;2023-08-20T21:54:00;19.40;;;11.70;;
68108;SDS011;54893;49.864;19.084;2023-08-20T21:59:02;16.60;;;11.70;;
68108;SDS011;54893;49.864;19.084;2023-08-20T22:04:02;17.53;;;11.30;;
68108;SDS011;54893;49.864;19.084;2023-08-20T22:09:03;19.67;;;11.63;;
68108;SDS011;54893;49.864;19.084;2023-08-20T22:14:03;17.83;;;11.50;;
68108;SDS011;54893;49.864;19.084;2023-08-20T22:19:03;19.17;;;11.87;;
68108;SDS011;54893;49.864;19.084;2023-08-20T22:24:04;20.02;;;12.30;;
68108;SDS011;54893;49.864;19.084;2023-08-20T22:29:05;17.73;;;11.90;;
68108;SDS011;54893;49.864;19.084;2023-08-20T22:34:06;21.08;;;12.40;;
68108;SDS011;54893;49.864;19.084;2023-08-20T22:39:07;17.07;;;11.73;;
68108;SDS011;54893;49.864;19.084;2023-08-20T22:44:07;21.03;;;12.10;;
68108;SDS011;54893;49.864;19.084;2023-08-20T22:49:07;19.00;;;11.83;;
68108;SDS011;54893;49.864;19.084;2023-08-20T22:54:08;17.90;;;11.60;;
68108;SDS011;54893;49.864;19.084;2023-08-20T22:59:08;17.73;;;11.70;;
68108;SDS011;54893;49.864;19.084;2023-08-20T23:04:11;19.80;;;12.90;;
68108;SDS011;54893;49.864;19.084;2023-08-20T23:09:11;20.53;;;13.27;;
68108;SDS011;54893;49.864;19.084;2023-08-20T23:14:11;21.23;;;13.32;;
68108;SDS011;54893;49.864;19.084;2023-08-20T23:19:12;20.60;;;13.82;;
68108;SDS011;54893;49.864;19.084;2023-08-20T23:24:12;22.33;;;13.67;;
68108;SDS011;54893;49.864;19.084;2023-08-20T23:29:12;20.55;;;14.25;;
68108;SDS011;54893;49.864;19.084;2023-08-20T23:34:13;20.80;;;13.98;;
68108;SDS011;54893;49.864;19.084;2023-08-20T23:39:13;22.00;;;14.37;;
68108;SDS011;54893;49.864;19.084;2023-08-20T23:44:13;22.92;;;14.20;;
68108;SDS011;54893;49.864;19.084;2023-08-20T23:49:14;25.20;;;14.83;;
68108;SDS011;54893;49.864;19.084;2023-08-20T23:54:15;23.53;;;14.70;;
68108;SDS011;54893;49.864;19.084;2023-08-20T23:59:15;24.70;;;14.50;;
